Time;durP1;ratioP1;P1;durP2;ratioP2;P2;SDS_P1;SDS_P2;PMS_P1;PMS_P2;Temp;Humidity;BMP_temperature;BMP_pressure;BME280_temperature;BME280_humidity;BME280_pressure;Samples;Min_cycle;Max_cycle;Signal;HPM_P1;HPM_P2
2021/01/16 00:00:45;;;;;;;3.15;1.63;;;0.60;83.10;;;;;;5075436;28;20127;-75
2021/01/16 00:03:11;;;;;;;2.40;1.60;;;0.60;84.90;;;;;;5078765;28;20028;-74
2021/01/16 00:05:39;;;;;;;2.53;1.67;;;0.60;84.30;;;;;;5073505;28;20034;-76
2021/01/16 00:08:06;;;;;;;7.07;1.98;;;0.70;84.60;;;;;;5077043;28;20395;-76
2021/01/16 00:10:34;;;;;;;2.75;1.45;;;0.70;83.20;;;;;;5069382;28;20051;-75
2021/01/16 00:13:00;;;;;;;2.70;1.75;;;0.60;83.40;;;;;;5077474;28;20039;-76
2021/01/16 00:15:26;;;;;;;2.67;1.58;;;0.70;83.60;;;;;;5069229;28;20024;-73
2021/01/16 00:18:04;;;;;;;2.65;1.73;;;0.70;83.30;;;;;;5076838;28;20075;-74
2021/01/16 00:20:31;;;;;;;4.72;1.77;;;0.70;83.00;;;;;;5073652;28;20064;-76
2021/01/16 00:22:57;;;;;;;2.75;1.80;;;0.70;83.10;;;;;;5075906;28;20124;-89
2021/01/16 00:25:22;;;;;;;3.53;2.00;;;0.80;83.90;;;;;;5075342;28;20123;-75
2021/01/16 00:27:48;;;;;;;4.28;2.22;;;0.70;83.90;;;;;;5076744;28;20159;-74
2021/01/16 00:30:16;;;;;;;3.63;1.98;;;0.70;84.50;;;;;;5076288;28;20028;-74
2021/01/16 00:32:41;;;;;;;2.22;1.70;;;0.70;83.60;;;;;;5075951;28;20050;-74
2021/01/16 00:35:14;;;;;;;3.33;1.73;;;0.60;85.40;;;;;;5065650;28;20406;-75
2021/01/16 00:37:40;;;;;;;5.05;1.90;;;0.60;85.30;;;;;;5053391;28;20029;-75
2021/01/16 00:40:10;;;;;;;3.38;2.10;;;0.60;84.00;;;;;;5052544;28;20449;-75
2021/01/16 00:42:44;;;;;;;3.67;2.00;;;0.50;83.70;;;;;;5061242;28;20612;-75
2021/01/16 00:45:10;;;;;;;3.90;1.90;;;0.50;85.30;;;;;;5057621;28;20052;-75
2021/01/16 00:47:37;;;;;;;3.25;2.08;;;0.60;85.60;;;;;;5062716;28;20412;-74
2021/01/16 00:50:08;;;;;;;2.53;1.55;;;0.70;84.60;;;;;;5065280;28;20036;-75
2021/01/16 00:52:35;;;;;;;4.95;2.00;;;0.70;84.20;;;;;;5054615;28;20029;-74
2021/01/16 00:55:00;;;;;;;4.05;2.20;;;0.60;83.20;;;;;;5062446;28;20037;-74
2021/01/16 00:57:27;;;;;;;3.42;2.00;;;0.70;82.90;;;;;;5062450;28;20694;-75
2021/01/16 00:59:52;;;;;;;5.13;2.40;;;0.80;83.90;;;;;;5071214;28;20024;-74
2021/01/16 01:02:18;;;;;;;3.95;2.17;;;0.80;83.30;;;;;;5069193;28;20078;-74
2021/01/16 01:04:44;;;;;;;3.30;1.85;;;0.70;82.90;;;;;;5063394;28;20202;-74
2021/01/16 01:07:10;;;;;;;2.85;2.03;;;0.70;83.30;;;;;;5068605;28;20029;-74
2021/01/16 01:09:36;;;;;;;2.75;2.00;;;0.80;83.90;;;;;;5054419;28;20036;-74
2021/01/16 01:12:02;;;;;;;3.47;2.08;;;0.90;83.40;;;;;;5056913;28;20021;-74
2021/01/16 01:14:28;;;;;;;4.15;2.00;;;0.80;82.80;;;;;;5054031;28;20364;-74
2021/01/16 01:16:53;;;;;;;3.30;2.10;;;0.70;83.40;;;;;;5051271;28;20028;-74
2021/01/16 01:19:19;;;;;;;5.10;2.38;;;0.60;84.30;;;;;;5051520;28;20032;-74
2021/01/16 01:21:44;;;;;;;3.10;2.10;;;0.70;84.80;;;;;;5059330;28;20112;-74
2021/01/16 01:24:10;;;;;;;4.05;2.40;;;0.80;85.20;;;;;;5064475;28;20442;-74
2021/01/16 01:26:39;;;;;;;2.70;1.95;;;0.70;84.70;;;;;;5054018;28;20074;-75
2021/01/16 01:29:05;;;;;;;2.92;1.73;;;0.70;84.80;;;;;;5066968;28;20027;-75
2021/01/16 01:31:31;;;;;;;3.72;2.13;;;0.80;84.70;;;;;;5068858;28;20024;-74
2021/01/16 01:33:56;;;;;;;3.30;2.05;;;0.90;84.20;;;;;;5050776;28;20509;-75
2021/01/16 01:36:21;;;;;;;3.20;1.90;;;0.80;84.60;;;;;;5054913;28;20025;-74
2021/01/16 01:38:47;;;;;;;6.55;2.05;;;0.80;84.00;;;;;;5053759;28;20024;-75
2021/01/16 01:41:12;;;;;;;4.15;2.10;;;0.80;84.70;;;;;;5058337;28;20544;-74
2021/01/16 01:43:38;;;;;;;3.53;2.17;;;0.70;84.50;;;;;;5055754;28;20036;-75
2021/01/16 01:46:03;;;;;;;7.57;2.38;;;0.70;84.70;;;;;;5067611;28;20074;-74
2021/01/16 01:48:29;;;;;;;3.45;1.98;;;0.70;84.70;;;;;;5050221;28;20418;-74
2021/01/16 01:50:55;;;;;;;3.40;2.22;;;0.70;84.80;;;;;;5049873;28;20510;-76
2021/01/16 01:53:23;;;;;;;3.28;2.05;;;0.70;84.10;;;;;;5053398;28;20029;-74
2021/01/16 01:55:52;;;;;;;3.67;2.30;;;0.70;85.10;;;;;;5052413;28;20528;-74
2021/01/16 01:58:22;;;;;;;3.13;1.98;;;0.70;84.80;;;;;;5053448;28;20029;-74
2021/01/16 02:00:49;;;;;;;4.53;2.47;;;0.60;84.90;;;;;;5062701;28;20040;-74
2021/01/16 02:03:15;;;;;;;2.75;1.95;;;0.60;85.30;;;;;;5057338;28;20108;-74
2021/01/16 02:05:41;;;;;;;3.50;2.45;;;0.50;86.50;;;;;;5051355;28;20053;-74
2021/01/16 02:08:07;;;;;;;5.20;2.75;;;0.50;86.70;;;;;;5058110;28;20450;-74
2021/01/16 02:10:33;;;;;;;8.73;2.60;;;0.60;86.60;;;;;;5050119;28;20025;-74
2021/01/16 02:12:59;;;;;;;4.85;2.35;;;0.50;85.80;;;;;;5049970;28;20052;-74
2021/01/16 02:15:34;;;;;;;4.05;2.33;;;0.40;86.40;;;;;;5058206;28;20122;-74
2021/01/16 02:18:33;;;;;;;3.47;2.67;;;0.40;86.20;;;;;;5057692;28;20064;-74
2021/01/16 02:21:02;;;;;;;4.40;2.40;;;0.30;87.20;;;;;;5060635;28;20116;-74
2021/01/16 02:23:31;;;;;;;4.18;2.63;;;0.40;87.30;;;;;;5051192;28;20029;-74
2021/01/16 02:26:17;;;;;;;5.05;2.67;;;0.30;87.90;;;;;;5061317;28;20070;-74
2021/01/16 02:28:56;;;;;;;4.32;2.08;;;0.30;88.40;;;;;;5052290;28;20032;-74
2021/01/16 02:31:26;;;;;;;4.10;2.22;;;0.30;88.40;;;;;;5060681;28;20028;-74
2021/01/16 02:33:54;;;;;;;10.68;2.92;;;0.30;88.10;;;;;;5054211;28;20081;-74
2021/01/16 02:36:51;;;;;;;4.30;2.47;;;0.20;88.50;;;;;;5052299;28;20051;-74
2021/01/16 02:39:28;;;;;;;4.43;2.58;;;0.20;89.70;;;;;;5056456;28;20037;-74
2021/01/16 02:42:03;;;;;;;3.53;2.20;;;0.20;90.30;;;;;;5052324;28;20392;-74
2021/01/16 02:44:37;;;;;;;5.40;2.78;;;0.20;90.20;;;;;;5065689;28;20044;-75
2021/01/16 02:47:15;;;;;;;4.95;2.88;;;0.20;90.30;;;;;;5053835;28;20037;-74
2021/01/16 02:49:59;;;;;;;6.63;3.38;;;0.20;90.80;;;;;;5059904;28;20039;-74
2021/01/16 02:52:27;;;;;;;4.57;2.88;;;0.20;91.00;;;;;;5051637;28;20020;-74
2021/01/16 02:54:55;;;;;;;8.50;3.20;;;0.20;90.90;;;;;;5052706;28;20028;-74
2021/01/16 02:57:21;;;;;;;3.75;2.17;;;0.20;91.20;;;;;;5053008;28;20029;-74
2021/01/16 02:59:47;;;;;;;5.18;2.65;;;0.20;91.20;;;;;;5049375;28;20033;-74
2021/01/16 03:02:14;;;;;;;4.03;2.63;;;0.10;91.20;;;;;;5063799;28;20032;-74
2021/01/16 03:04:41;;;;;;;4.55;2.70;;;0.10;91.50;;;;;;5066226;28;20038;-74
2021/01/16 03:07:09;;;;;;;8.55;3.08;;;0.20;92.00;;;;;;5048336;28;20047;-74
2021/01/16 03:09:35;;;;;;;5.72;2.65;;;0.20;92.20;;;;;;5059066;28;20056;-74
2021/01/16 03:12:01;;;;;;;5.53;2.92;;;0.20;92.20;;;;;;5051052;28;20119;-74
2021/01/16 03:14:31;;;;;;;4.28;2.42;;;0.30;92.50;;;;;;5068825;28;20127;-75
2021/01/16 03:17:05;;;;;;;5.53;2.58;;;0.40;92.40;;;;;;5064469;28;20059;-74
2021/01/16 03:19:32;;;;;;;6.30;2.65;;;0.40;92.20;;;;;;5048899;28;20060;-74
2021/01/16 03:21:58;;;;;;;5.20;2.55;;;0.40;92.50;;;;;;5049366;28;20029;-75
2021/01/16 03:24:24;;;;;;;4.45;2.75;;;0.30;92.60;;;;;;5051156;28;20555;-74
2021/01/16 03:26:50;;;;;;;3.95;2.40;;;0.30;92.60;;;;;;5055993;28;20075;-75
2021/01/16 03:29:15;;;;;;;4.38;2.58;;;0.30;92.80;;;;;;5049068;28;20024;-76
2021/01/16 03:31:41;;;;;;;5.25;2.92;;;0.30;93.20;;;;;;5059044;28;20111;-75
2021/01/16 03:34:06;;;;;;;5.00;2.67;;;0.40;93.20;;;;;;5047940;28;20105;-76
2021/01/16 03:36:32;;;;;;;8.07;3.13;;;0.30;93.40;;;;;;5065618;28;20206;-76
2021/01/16 03:38:57;;;;;;;7.70;2.75;;;0.20;93.80;;;;;;5064612;28;20081;-75
2021/01/16 03:41:23;;;;;;;7.97;2.67;;;0.20;94.30;;;;;;5054144;28;20479;-76
2021/01/16 03:43:48;;;;;;;5.40;2.65;;;0.20;94.60;;;;;;5066692;28;20090;-76
2021/01/16 03:46:14;;;;;;;5.68;2.88;;;0.20;95.00;;;;;;5062301;28;20060;-76
2021/01/16 03:48:40;;;;;;;5.25;2.80;;;0.30;95.30;;;;;;5067162;28;20029;-76
2021/01/16 03:51:06;;;;;;;4.45;2.53;;;0.30;95.20;;;;;;5056531;28;20614;-76
2021/01/16 03:53:32;;;;;;;8.10;3.40;;;0.20;95.30;;;;;;5048661;28;20108;-75
2021/01/16 03:55:57;;;;;;;6.05;3.00;;;0.20;95.90;;;;;;5058332;28;20352;-75
2021/01/16 03:58:23;;;;;;;5.70;2.80;;;0.30;96.50;;;;;;5057220;28;20490;-76
2021/01/16 04:00:48;;;;;;;5.13;3.10;;;0.30;96.70;;;;;;5051585;28;20052;-75
2021/01/16 04:03:14;;;;;;;6.13;3.45;;;0.10;97.30;;;;;;5066040;28;20553;-76
2021/01/16 04:05:39;;;;;;;5.82;2.83;;;0.10;97.50;;;;;;5052216;28;20204;-76
2021/01/16 04:08:05;;;;;;;5.25;2.75;;;0.10;97.70;;;;;;5048352;28;20036;-77
2021/01/16 04:10:30;;;;;;;6.28;3.33;;;0.30;98.10;;;;;;5052035;28;20025;-76
2021/01/16 04:12:56;;;;;;;5.40;2.92;;;0.20;98.30;;;;;;5053764;28;20021;-76
2021/01/16 04:15:21;;;;;;;6.55;3.35;;;0.20;98.10;;;;;;5061623;28;20085;-76
2021/01/16 04:17:46;;;;;;;4.93;3.13;;;0.30;98.60;;;;;;5054104;28;20133;-76
2021/01/16 04:20:12;;;;;;;6.38;2.88;;;0.20;98.80;;;;;;5069250;28;20032;-76
2021/01/16 04:22:38;;;;;;;6.22;3.45;;;0.20;98.80;;;;;;5070818;28;20367;-75
2021/01/16 04:25:06;;;;;;;7.32;3.17;;;0.20;98.80;;;;;;5064488;28;20537;-76
2021/01/16 04:27:33;;;;;;;4.75;3.05;;;0.20;99.50;;;;;;5062435;28;20020;-76
2021/01/16 04:30:03;;;;;;;6.15;2.97;;;0.30;99.00;;;;;;5059319;28;20065;-76
2021/01/16 04:32:28;;;;;;;4.45;3.08;;;0.20;99.30;;;;;;5066868;28;20031;-76
2021/01/16 04:34:54;;;;;;;5.63;3.15;;;0.20;99.50;;;;;;5053789;28;20028;-76
2021/01/16 04:37:19;;;;;;;5.35;3.05;;;0.20;99.50;;;;;;5070833;28;20033;-76
2021/01/16 04:39:45;;;;;;;4.93;3.05;;;0.20;99.70;;;;;;5066910;28;20395;-76
2021/01/16 04:42:14;;;;;;;5.40;3.05;;;0.20;99.80;;;;;;5056077;28;20182;-76
2021/01/16 04:44:43;;;;;;;9.27;3.08;;;0.20;99.90;;;;;;5051616;28;20037;-76
2021/01/16 04:47:15;;;;;;;5.60;3.03;;;0.20;99.90;;;;;;5059353;28;20146;-76
2021/01/16 04:49:41;;;;;;;5.65;3.40;;;0.10;99.90;;;;;;5051990;28;20032;-76
2021/01/16 04:52:09;;;;;;;5.68;3.50;;;0.20;99.90;;;;;;5061268;28;20379;-76
2021/01/16 04:54:35;;;;;;;5.72;3.22;;;0.30;99.90;;;;;;5064020;28;20068;-76
2021/01/16 04:57:01;;;;;;;7.47;3.42;;;0.30;99.90;;;;;;5070453;28;20036;-76
2021/01/16 04:59:26;;;;;;;5.90;3.50;;;0.30;99.90;;;;;;5070145;28;20547;-76
2021/01/16 05:01:55;;;;;;;8.82;3.25;;;0.20;99.90;;;;;;5057969;28;20040;-76
2021/01/16 05:04:23;;;;;;;6.88;3.63;;;0.20;99.90;;;;;;5055147;28;20036;-75
2021/01/16 05:06:49;;;;;;;5.93;3.15;;;0.30;99.90;;;;;;5057807;28;20040;-76
2021/01/16 05:09:16;;;;;;;8.88;3.97;;;0.30;99.90;;;;;;5069220;28;20032;-76
2021/01/16 05:11:57;;;;;;;6.47;3.47;;;0.30;99.90;;;;;;5051902;28;20099;-76
2021/01/16 05:14:35;;;;;;;6.03;3.20;;;0.20;99.90;;;;;;5055724;28;20029;-76
2021/01/16 05:17:02;;;;;;;5.72;3.38;;;0.30;99.90;;;;;;5050975;28;20039;-76
2021/01/16 05:19:30;;;;;;;5.95;3.58;;;0.20;99.90;;;;;;5057754;28;20090;-76
2021/01/16 05:21:56;;;;;;;7.10;3.88;;;0.30;99.90;;;;;;5052316;28;20047;-76
2021/01/16 05:24:22;;;;;;;7.40;3.70;;;0.20;99.90;;;;;;5055760;28;20476;-76
2021/01/16 05:26:53;;;;;;;5.00;3.05;;;0.30;99.90;;;;;;5051441;28;20479;-76
2021/01/16 05:29:21;;;;;;;5.55;3.50;;;0.30;99.90;;;;;;5054371;28;20352;-76
2021/01/16 05:31:48;;;;;;;5.35;3.08;;;0.30;99.90;;;;;;5064022;28;20522;-76
2021/01/16 05:34:14;;;;;;;5.22;3.42;;;0.30;99.90;;;;;;5050544;28;20029;-76
2021/01/16 05:36:48;;;;;;;5.93;3.33;;;0.30;99.90;;;;;;5050937;28;20368;-76
2021/01/16 05:39:18;;;;;;;7.43;4.07;;;0.40;99.90;;;;;;5060660;28;20032;-76
2021/01/16 05:41:44;;;;;;;5.32;3.38;;;0.40;99.90;;;;;;5067016;28;20082;-76
2021/01/16 05:44:09;;;;;;;8.35;3.92;;;0.30;99.90;;;;;;5068977;28;20132;-76
2021/01/16 05:46:36;;;;;;;8.27;3.58;;;0.30;99.90;;;;;;5054973;28;20116;-76
2021/01/16 05:49:03;;;;;;;7.50;3.55;;;0.30;99.90;;;;;;5057637;28;20025;-76
2021/01/16 05:51:29;;;;;;;7.03;3.90;;;0.30;99.90;;;;;;5050467;28;20108;-76
2021/01/16 05:53:55;;;;;;;6.68;3.80;;;0.40;99.90;;;;;;5050258;28;20025;-76
2021/01/16 05:56:21;;;;;;;8.85;3.72;;;0.40;99.90;;;;;;5050940;28;20028;-76
2021/01/16 05:58:47;;;;;;;6.70;3.40;;;0.40;99.90;;;;;;5065857;28;20047;-76
2021/01/16 06:01:21;;;;;;;8.70;4.07;;;0.40;99.90;;;;;;5059550;28;20037;-76
2021/01/16 06:03:50;;;;;;;8.07;4.15;;;0.50;99.90;;;;;;5067003;28;20024;-76
2021/01/16 06:06:18;;;;;;;10.77;4.55;;;0.50;99.90;;;;;;5068140;28;20062;-76
2021/01/16 06:08:54;;;;;;;7.85;4.20;;;0.50;99.90;;;;;;5066382;28;20100;-76
2021/01/16 06:11:20;;;;;;;9.98;4.20;;;0.50;99.90;;;;;;5065865;28;20028;-76
2021/01/16 06:13:50;;;;;;;8.25;4.47;;;0.50;99.90;;;;;;5059367;28;20127;-76
2021/01/16 06:16:20;;;;;;;6.43;3.83;;;0.50;99.90;;;;;;5057397;28;20068;-77
2021/01/16 06:18:47;;;;;;;7.82;4.05;;;0.50;99.90;;;;;;5060973;28;20028;-76
2021/01/16 06:21:22;;;;;;;8.40;4.47;;;0.40;99.90;;;;;;5056277;28;20025;-76
2021/01/16 06:23:53;;;;;;;11.30;4.68;;;0.50;99.90;;;;;;5053222;28;20021;-76
2021/01/16 06:26:20;;;;;;;7.20;4.22;;;0.50;99.90;;;;;;5049664;28;20066;-76
2021/01/16 06:28:59;;;;;;;6.68;4.35;;;0.50;99.90;;;;;;5049901;28;20025;-76
2021/01/16 06:31:30;;;;;;;8.68;4.50;;;0.50;99.90;;;;;;5054866;28;20486;-76
2021/01/16 06:34:01;;;;;;;7.82;4.35;;;0.50;99.90;;;;;;5060791;28;20032;-76
2021/01/16 06:36:32;;;;;;;7.18;4.20;;;0.60;99.90;;;;;;5064707;28;20418;-76
2021/01/16 06:39:00;;;;;;;8.48;4.22;;;0.60;99.90;;;;;;5062554;28;20364;-76
2021/01/16 06:41:36;;;;;;;9.60;4.40;;;0.50;99.90;;;;;;5069355;28;20048;-76
2021/01/16 06:44:02;;;;;;;8.65;4.35;;;0.60;99.90;;;;;;5054862;28;20045;-76
2021/01/16 06:46:41;;;;;;;8.25;4.57;;;0.60;99.90;;;;;;5049252;28;20033;-76
2021/01/16 06:49:17;;;;;;;8.30;4.35;;;0.70;99.90;;;;;;5062688;28;20032;-76
2021/01/16 06:51:43;;;;;;;8.52;4.85;;;0.60;99.90;;;;;;5061254;28;20021;-76
2021/01/16 06:54:08;;;;;;;8.38;4.13;;;0.70;99.90;;;;;;5054736;28;20021;-76
2021/01/16 06:56:38;;;;;;;9.70;4.20;;;0.70;99.90;;;;;;5050887;28;20107;-76
2021/01/16 06:59:12;;;;;;;7.50;4.40;;;0.70;99.90;;;;;;5049864;28;20054;-76
2021/01/16 07:01:38;;;;;;;8.95;4.60;;;0.70;99.90;;;;;;5049622;28;20116;-76
2021/01/16 07:04:04;;;;;;;8.55;4.40;;;0.60;99.90;;;;;;5056730;28;20111;-76
2021/01/16 07:06:44;;;;;;;10.95;4.70;;;0.60;99.90;;;;;;5052325;28;20098;-76
2021/01/16 07:09:16;;;;;;;10.25;4.72;;;0.70;99.90;;;;;;5052296;28;20110;-76
2021/01/16 07:11:43;;;;;;;9.02;4.20;;;0.70;99.90;;;;;;5049376;28;20503;-76
2021/01/16 07:14:10;;;;;;;7.57;4.32;;;0.70;99.90;;;;;;5061923;28;20037;-76
2021/01/16 07:16:36;;;;;;;7.93;4.30;;;0.70;99.90;;;;;;5067269;28;20040;-76
2021/01/16 07:19:02;;;;;;;8.05;4.50;;;0.80;99.90;;;;;;5064888;28;20033;-76
2021/01/16 07:21:28;;;;;;;8.98;5.00;;;0.80;99.90;;;;;;5066732;28;20115;-76
2021/01/16 07:23:54;;;;;;;9.32;5.00;;;0.70;99.90;;;;;;5053146;28;20024;-76
2021/01/16 07:26:21;;;;;;;8.00;4.00;;;0.70;99.90;;;;;;5065833;28;20567;-76
2021/01/16 07:28:50;;;;;;;8.82;4.68;;;0.70;99.90;;;;;;5055036;28;20736;-76
2021/01/16 07:31:16;;;;;;;10.55;4.90;;;0.70;99.90;;;;;;5051796;28;20033;-76
2021/01/16 07:33:43;;;;;;;8.95;4.35;;;0.60;99.90;;;;;;5049126;28;20083;-76
2021/01/16 07:36:16;;;;;;;7.43;4.28;;;0.70;99.90;;;;;;5055878;28;20055;-76
2021/01/16 07:38:50;;;;;;;8.00;4.93;;;0.70;99.90;;;;;;5064740;28;20029;-76
2021/01/16 07:41:20;;;;;;;8.88;4.65;;;0.70;99.90;;;;;;5049304;28;20065;-76
2021/01/16 07:43:54;;;;;;;8.85;4.57;;;0.70;99.90;;;;;;5060203;28;20384;-76
2021/01/16 07:46:21;;;;;;;10.73;4.90;;;0.70;99.90;;;;;;5052026;28;20029;-76
2021/01/16 07:49:06;;;;;;;9.90;5.07;;;0.70;99.90;;;;;;5062866;28;20555;-76
2021/01/16 07:51:38;;;;;;;8.77;5.18;;;0.70;99.90;;;;;;5055097;28;20078;-76
2021/01/16 07:54:10;;;;;;;8.93;4.60;;;0.70;99.90;;;;;;5055526;28;20021;-76
2021/01/16 07:56:43;;;;;;;8.40;4.60;;;0.60;99.90;;;;;;5052616;28;20036;-76
2021/01/16 07:59:18;;;;;;;11.88;4.78;;;0.70;99.90;;;;;;5069522;28;20032;-76
2021/01/16 08:01:59;;;;;;;11.77;4.70;;;0.70;99.90;;;;;;5058408;28;20111;-76
2021/01/16 08:04:26;;;;;;;9.43;4.93;;;0.70;99.90;;;;;;5071619;28;20036;-76
2021/01/16 08:07:03;;;;;;;10.20;4.68;;;0.70;99.90;;;;;;5052058;28;20113;-76
2021/01/16 08:09:50;;;;;;;8.10;4.57;;;0.80;99.90;;;;;;5052787;28;20430;-76
2021/01/16 08:12:17;;;;;;;15.63;7.60;;;0.70;99.90;;;;;;5060268;28;20564;-76
2021/01/16 08:14:43;;;;;;;10.50;5.22;;;0.70;99.90;;;;;;5066167;28;20475;-76
2021/01/16 08:17:15;;;;;;;6.93;4.53;;;0.70;99.90;;;;;;5054809;28;20032;-76
2021/01/16 08:19:46;;;;;;;9.35;4.60;;;0.70;99.90;;;;;;5060021;28;20119;-77
2021/01/16 08:22:17;;;;;;;9.93;5.63;;;0.70;99.90;;;;;;5058561;28;20476;-76
2021/01/16 08:25:02;;;;;;;10.25;5.13;;;0.70;99.90;;;;;;5065540;28;20494;-76
2021/01/16 08:27:29;;;;;;;7.93;4.60;;;0.80;99.90;;;;;;5060581;28;20037;-76
2021/01/16 08:30:05;;;;;;;7.95;4.88;;;0.80;99.90;;;;;;5063793;28;20460;-76
2021/01/16 08:32:30;;;;;;;8.40;4.68;;;0.80;99.90;;;;;;5063575;28;20036;-77
2021/01/16 08:34:57;;;;;;;9.57;5.47;;;0.80;99.90;;;;;;5067759;28;20514;-76
2021/01/16 08:37:33;;;;;;;9.95;5.20;;;0.80;99.90;;;;;;5064625;28;20470;-75
2021/01/16 08:40:00;;;;;;;8.07;5.13;;;0.80;99.90;;;;;;5052656;28;20032;-75
2021/01/16 08:42:27;;;;;;;8.98;5.13;;;0.80;99.90;;;;;;5077485;28;20059;-73
2021/01/16 08:44:54;;;;;;;10.35;4.80;;;0.70;99.90;;;;;;5061363;28;20041;-75
2021/01/16 08:47:20;;;;;;;8.30;4.60;;;0.70;99.90;;;;;;5065005;28;20029;-74
2021/01/16 08:49:46;;;;;;;9.80;5.88;;;0.70;99.90;;;;;;5058295;28;20079;-78
2021/01/16 08:52:12;;;;;;;8.50;4.80;;;0.80;99.90;;;;;;5061731;28;20572;-74
2021/01/16 08:54:37;;;;;;;11.57;5.45;;;0.90;99.90;;;;;;5052378;28;20029;-75
2021/01/16 08:57:14;;;;;;;9.65;5.05;;;0.80;99.90;;;;;;5058521;28;20081;-77
2021/01/16 08:59:40;;;;;;;10.82;5.18;;;0.80;99.90;;;;;;5056215;28;20025;-74
2021/01/16 09:02:10;;;;;;;8.93;4.85;;;0.90;99.90;;;;;;5051394;28;20032;-75
2021/01/16 09:04:43;;;;;;;10.13;4.97;;;0.90;99.90;;;;;;5068290;28;20661;-74
2021/01/16 09:07:18;;;;;;;8.98;5.00;;;0.90;99.90;;;;;;5069697;28;20032;-75
2021/01/16 09:09:56;;;;;;;10.25;5.07;;;0.90;99.90;;;;;;5071499;28;20025;-75
2021/01/16 09:12:47;;;;;;;8.07;4.43;;;1.00;99.90;;;;;;5056486;28;20021;-74
2021/01/16 09:15:19;;;;;;;;;;;1.10;99.90;;;;;;5050767;28;20040;-75
2021/01/16 09:18:02;;;;;;;8.85;4.65;;;1.00;99.90;;;;;;5052244;28;19909;-76
2021/01/16 09:20:28;;;;;;;9.75;5.15;;;1.00;99.90;;;;;;5050979;28;20498;-77
2021/01/16 09:22:53;;;;;;;7.97;4.50;;;0.90;99.90;;;;;;5058885;28;20036;-77
2021/01/16 09:25:24;;;;;;;11.30;5.57;;;1.00;99.90;;;;;;5055144;28;20028;-79
2021/01/16 09:27:51;;;;;;;11.70;5.20;;;1.00;99.90;;;;;;5070998;28;20119;-74
2021/01/16 09:30:24;;;;;;;11.02;5.75;;;1.10;99.90;;;;;;5054515;28;20279;-75
2021/01/16 09:32:50;;;;;;;9.88;5.40;;;1.10;99.90;;;;;;5083411;28;20027;-75
2021/01/16 09:35:38;;;;;;;9.30;5.40;;;1.10;99.90;;;;;;5062032;28;20031;-74
2021/01/16 09:38:15;;;;;;;8.00;4.95;;;1.10;99.90;;;;;;5065189;28;20070;-75
2021/01/16 09:40:40;;;;;;;11.70;5.38;;;1.10;99.90;;;;;;5060602;28;20765;-75
2021/01/16 09:43:16;;;;;;;9.13;4.57;;;1.20;99.90;;;;;;5060842;28;20116;-76
2021/01/16 09:45:55;;;;;;;9.55;4.93;;;1.10;99.80;;;;;;5067112;28;20152;-77
2021/01/16 09:48:40;;;;;;;10.88;4.68;;;1.20;99.40;;;;;;5063155;28;20032;-75
2021/01/16 09:51:10;;;;;;;8.25;4.85;;;1.20;99.60;;;;;;5061256;28;20024;-76
2021/01/16 09:53:37;;;;;;;9.85;5.32;;;1.20;99.50;;;;;;5050270;28;20023;-75
2021/01/16 09:56:03;;;;;;;11.57;5.47;;;1.30;99.10;;;;;;5059452;28;20024;-76
2021/01/16 09:58:32;;;;;;;10.30;5.05;;;1.30;98.80;;;;;;5057050;28;20056;-73
2021/01/16 10:01:23;;;;;;;10.02;4.85;;;1.30;98.60;;;;;;5053853;28;20032;-77
2021/01/16 10:03:49;;;;;;;11.00;5.68;;;1.30;98.80;;;;;;5064672;28;20074;-77
2021/01/16 10:06:19;;;;;;;11.68;5.43;;;1.30;98.90;;;;;;5052242;28;20107;-75
2021/01/16 10:08:54;;;;;;;10.77;5.50;;;1.30;98.60;;;;;;5059640;28;20029;-78
2021/01/16 10:11:41;;;;;;;9.57;4.93;;;1.20;98.70;;;;;;5068090;28;20094;-77
2021/01/16 10:14:15;;;;;;;11.18;5.13;;;1.20;98.90;;;;;;5051322;28;20021;-77
2021/01/16 10:16:41;;;;;;;13.15;4.88;;;1.20;98.80;;;;;;5062417;28;20060;-78
2021/01/16 10:19:12;;;;;;;9.43;5.32;;;1.30;99.00;;;;;;5061734;28;20028;-77
2021/01/16 10:21:56;;;;;;;12.65;5.63;;;1.20;98.30;;;;;;5067193;28;20040;-77
2021/01/16 10:24:22;;;;;;;8.77;4.78;;;1.30;98.50;;;;;;5059733;28;20063;-76
2021/01/16 10:26:48;;;;;;;9.55;5.05;;;1.30;97.90;;;;;;5069033;28;20119;-75
2021/01/16 10:29:36;;;;;;;8.65;4.63;;;1.40;97.80;;;;;;5067513;28;20124;-76
2021/01/16 10:32:20;;;;;;;9.98;5.18;;;1.30;97.50;;;;;;5063097;28;20039;-80
2021/01/16 10:34:46;;;;;;;10.85;5.30;;;1.40;97.70;;;;;;5055042;28;20126;-77
2021/01/16 10:37:12;;;;;;;10.02;4.60;;;1.40;97.90;;;;;;5054199;28;20112;-86
2021/01/16 10:39:39;;;;;;;9.20;4.82;;;1.40;97.10;;;;;;5051114;28;20114;-80
2021/01/16 10:42:12;;;;;;;11.75;5.60;;;1.30;96.90;;;;;;5051508;28;20025;-77
2021/01/16 10:44:39;;;;;;;11.85;5.03;;;1.40;96.90;;;;;;5054515;28;20054;-82
2021/01/16 10:47:32;;;;;;;7.88;4.65;;;1.40;97.20;;;;;;5054202;28;20457;-80
2021/01/16 10:50:21;;;;;;;9.52;5.30;;;1.40;96.70;;;;;;5062655;28;20115;-84
2021/01/16 10:53:08;;;;;;;9.98;5.05;;;1.50;96.70;;;;;;5052192;28;20040;-81
2021/01/16 10:55:54;;;;;;;9.00;5.10;;;1.60;96.30;;;;;;5065362;28;20021;-82
2021/01/16 10:58:27;;;;;;;9.88;5.22;;;1.70;96.10;;;;;;5059349;28;20024;-90
2021/01/16 11:00:58;;;;;;;8.68;4.97;;;1.80;95.90;;;;;;5055590;28;20028;-79
2021/01/16 11:03:26;;;;;;;10.13;4.90;;;1.70;95.20;;;;;;5054670;28;20032;-82
2021/01/16 11:05:53;;;;;;;8.32;4.72;;;1.60;94.70;;;;;;5071676;28;20110;-82
2021/01/16 11:08:26;;;;;;;10.68;5.05;;;1.60;95.20;;;;;;5072783;28;20060;-82
2021/01/16 11:10:52;;;;;;;9.98;5.35;;;1.70;95.20;;;;;;5069318;28;20033;-76
2021/01/16 11:13:28;;;;;;;9.85;5.45;;;1.80;95.10;;;;;;5073515;28;20406;-75
2021/01/16 11:15:54;;;;;;;9.73;5.15;;;1.80;95.30;;;;;;5071875;28;20037;-76
2021/01/16 11:18:34;;;;;;;9.23;5.15;;;1.90;94.50;;;;;;5071660;28;20025;-75
2021/01/16 11:21:06;;;;;;;9.23;4.97;;;1.80;95.00;;;;;;5060360;28;20040;-75
2021/01/16 11:23:45;;;;;;;14.52;7.03;;;1.60;94.50;;;;;;5066944;28;20033;-75
2021/01/16 11:26:12;;;;;;;10.50;5.50;;;1.70;94.70;;;;;;5070446;28;20039;-75
2021/01/16 11:28:50;;;;;;;13.02;6.80;;;1.70;94.60;;;;;;5072315;28;20048;-75
2021/01/16 11:31:27;;;;;;;9.55;5.13;;;1.70;94.90;;;;;;5072075;28;20513;-75
2021/01/16 11:34:07;;;;;;;10.15;4.93;;;1.70;94.40;;;;;;5073428;28;20502;-75
2021/01/16 11:36:34;;;;;;;8.88;4.93;;;1.60;94.80;;;;;;5071149;28;20051;-75
2021/01/16 11:38:59;;;;;;;9.00;4.72;;;1.70;94.90;;;;;;5074201;28;20036;-75
2021/01/16 11:41:50;;;;;;;8.73;5.10;;;1.70;95.00;;;;;;5070125;28;20571;-75
2021/01/16 11:44:16;;;;;;;10.13;5.30;;;1.90;95.30;;;;;;5074063;28;20044;-75
2021/01/16 11:46:41;;;;;;;9.88;5.72;;;2.00;95.20;;;;;;5072519;28;20106;-75
2021/01/16 11:49:08;;;;;;;9.00;4.88;;;1.90;94.20;;;;;;5071804;28;20027;-75
2021/01/16 11:51:33;;;;;;;10.60;4.97;;;1.90;93.90;;;;;;5066030;28;20028;-75
2021/01/16 11:53:59;;;;;;;7.30;4.50;;;1.90;93.60;;;;;;5073235;28;20483;-75
2021/01/16 11:56:25;;;;;;;8.43;4.22;;;2.00;93.70;;;;;;5070044;28;20033;-75
2021/01/16 11:58:52;;;;;;;8.18;4.68;;;2.20;93.50;;;;;;5069909;28;20086;-76
2021/01/16 12:01:18;;;;;;;9.65;4.75;;;2.30;93.20;;;;;;5070320;28;20487;-75
2021/01/16 12:03:44;;;;;;;9.95;5.38;;;2.30;92.60;;;;;;5072291;28;20482;-76
2021/01/16 12:06:15;;;;;;;10.00;5.13;;;2.30;92.70;;;;;;5069860;28;20042;-76
2021/01/16 12:08:43;;;;;;;12.23;4.97;;;2.40;92.40;;;;;;5067366;28;20499;-78
2021/01/16 12:11:08;;;;;;;8.35;4.68;;;2.40;91.30;;;;;;5062453;28;20048;-80
2021/01/16 12:13:34;;;;;;;8.77;4.63;;;2.40;92.00;;;;;;5068202;28;20043;-81
2021/01/16 12:16:00;;;;;;;10.77;4.60;;;2.40;91.50;;;;;;5070484;28;20025;-81
2021/01/16 12:18:26;;;;;;;8.65;4.47;;;2.50;91.20;;;;;;5067844;28;20127;-81
2021/01/16 12:20:52;;;;;;;10.15;4.78;;;2.80;91.00;;;;;;5073004;28;20090;-80
2021/01/16 12:23:20;;;;;;;9.50;4.30;;;2.80;90.30;;;;;;5071673;28;20036;-81
2021/01/16 12:25:50;;;;;;;7.32;4.15;;;2.60;89.90;;;;;;5070909;28;20024;-81
2021/01/16 12:28:23;;;;;;;7.40;4.20;;;3.10;90.10;;;;;;5073660;28;20059;-79
2021/01/16 12:30:49;;;;;;;8.10;4.20;;;3.60;86.30;;;;;;5070090;28;20028;-79
2021/01/16 12:33:24;;;;;;;8.77;4.13;;;4.30;84.00;;;;;;5072235;28;20499;-79
2021/01/16 12:35:50;;;;;;;7.55;4.13;;;4.80;79.70;;;;;;5074916;28;20027;-80
2021/01/16 12:38:16;;;;;;;7.03;3.97;;;5.30;76.20;;;;;;5073467;28;20033;-79
2021/01/16 12:40:41;;;;;;;9.02;4.35;;;5.20;73.10;;;;;;5075229;28;20617;-81
2021/01/16 12:43:12;;;;;;;7.88;3.83;;;4.70;73.90;;;;;;5074013;28;20072;-75
2021/01/16 12:45:38;;;;;;;11.60;5.25;;;4.30;74.10;;;;;;5076446;28;20056;-78
2021/01/16 12:48:05;;;;;;;8.40;4.32;;;3.80;75.20;;;;;;5066692;28;20039;-79
2021/01/16 12:50:30;;;;;;;7.35;3.90;;;3.40;77.10;;;;;;5075331;28;20028;-78
2021/01/16 12:52:57;;;;;;;5.85;2.95;;;3.10;78.30;;;;;;5073707;28;20024;-79
2021/01/16 12:55:25;;;;;;;6.47;3.90;;;2.60;78.30;;;;;;5073450;28;20187;-78
2021/01/16 12:57:52;;;;;;;5.32;3.03;;;2.40;77.70;;;;;;5073270;28;20032;-78
2021/01/16 13:00:26;;;;;;;5.60;3.05;;;2.30;78.10;;;;;;5075300;28;20035;-78
2021/01/16 13:02:58;;;;;;;10.50;4.80;;;2.20;78.70;;;;;;5074499;28;20036;-78
2021/01/16 13:05:32;;;;;;;4.82;3.25;;;2.10;78.10;;;;;;5075343;28;20027;-77
2021/01/16 13:07:59;;;;;;;23.70;8.48;;;2.20;79.50;;;;;;5075479;28;20051;-80